createdAt,value
2018-08-16T00:00:58.667Z,0.00
2018-08-16T00:01:58.573Z,0.00
2018-08-16T00:02:58.480Z,0.00
2018-08-16T00:03:58.389Z,0.00
2018-08-16T00:04:58.315Z,0.00
2018-08-16T00:05:58.208Z,0.00
2018-08-16T00:06:58.114Z,0.00
2018-08-16T00:07:58.022Z,0.00
2018-08-16T00:08:57.928Z,0.00
2018-08-16T00:09:57.856Z,0.00
2018-08-16T00:10:57.745Z,0.00
2018-08-16T00:11:57.656Z,0.00
2018-08-16T00:12:57.565Z,0.00
2018-08-16T00:13:57.474Z,0.00
2018-08-16T00:14:57.394Z,0.00
2018-08-16T00:15:57.287Z,0.00
2018-08-16T00:16:57.196Z,0.00
2018-08-16T00:17:57.104Z,0.00
2018-08-16T00:18:57.011Z,0.00
2018-08-16T00:19:56.936Z,0.00
2018-08-16T00:20:56.830Z,0.00
2018-08-16T00:21:56.737Z,0.00
2018-08-16T00:22:56.645Z,0.00
2018-08-16T00:23:56.554Z,0.00
2018-08-16T00:24:56.481Z,0.00
2018-08-16T00:25:56.369Z,0.00
2018-08-16T00:26:56.275Z,0.00
2018-08-16T00:27:56.285Z,0.00
2018-08-16T00:28:56.093Z,0.00
2018-08-16T00:29:56.021Z,0.00
2018-08-16T00:30:55.908Z,0.00
2018-08-16T00:31:55.817Z,0.00
2018-08-16T00:32:55.727Z,0.00
2018-08-16T00:33:55.638Z,0.00
2018-08-16T00:34:55.568Z,0.00
2018-08-16T00:35:55.451Z,0.00
2018-08-16T00:36:55.359Z,0.00
2018-08-16T00:37:55.267Z,0.00
2018-08-16T00:38:55.174Z,0.00
2018-08-16T00:39:55.114Z,0.00
2018-08-16T00:40:54.992Z,0.00
2018-08-16T00:41:55.017Z,0.00
2018-08-16T00:42:54.809Z,0.00
2018-08-16T00:43:54.719Z,0.00
2018-08-16T00:44:54.640Z,0.00
2018-08-16T00:45:54.535Z,0.00
2018-08-16T00:46:54.441Z,0.00
2018-08-16T00:47:54.347Z,0.00
2018-08-16T00:48:54.359Z,0.00
2018-08-16T00:49:54.189Z,0.00
2018-08-16T00:50:54.071Z,0.00
2018-08-16T00:51:53.982Z,0.00
2018-08-16T00:52:53.890Z,0.00
2018-08-16T00:53:53.796Z,0.00
2018-08-16T00:54:53.728Z,0.00
2018-08-16T00:55:53.714Z,0.00
2018-08-16T00:56:53.522Z,0.00
2018-08-16T00:57:53.430Z,0.00
2018-08-16T00:58:53.339Z,0.00
2018-08-16T00:59:53.254Z,0.00
2018-08-16T01:00:53.175Z,0.00
2018-08-16T01:01:53.060Z,0.00
2018-08-16T01:02:53.070Z,0.00
2018-08-16T01:03:52.877Z,0.00
2018-08-16T01:04:52.791Z,0.00
2018-08-16T01:05:52.708Z,0.00
2018-08-16T01:06:52.602Z,0.00
2018-08-16T01:07:52.511Z,0.00
2018-08-16T01:08:52.419Z,0.00
2018-08-16T01:09:52.450Z,0.00
2018-08-16T01:10:52.248Z,0.00
2018-08-16T01:11:52.143Z,0.00
2018-08-16T01:12:52.050Z,0.00
2018-08-16T01:13:51.956Z,0.00
2018-08-16T01:14:51.869Z,0.00
2018-08-16T01:15:51.789Z,0.00
2018-08-16T01:16:51.787Z,0.00
2018-08-16T01:17:51.591Z,0.00
2018-08-16T01:18:51.498Z,0.00
2018-08-16T01:19:51.405Z,0.00
2018-08-16T01:20:51.326Z,0.00
2018-08-16T01:21:51.220Z,0.00
2018-08-16T01:22:51.128Z,0.00
2018-08-16T01:23:51.134Z,0.00
2018-08-16T01:24:50.942Z,0.00
2018-08-16T01:25:50.866Z,0.00
2018-08-16T01:26:50.757Z,0.00
2018-08-16T01:27:50.665Z,0.00
2018-08-16T01:28:50.573Z,0.00
2018-08-16T01:29:50.483Z,0.00
2018-08-16T01:30:50.522Z,0.00
2018-08-16T01:31:50.297Z,0.00
2018-08-16T01:32:50.205Z,0.00
2018-08-16T01:33:50.113Z,0.00
2018-08-16T01:34:50.024Z,0.00
2018-08-16T01:35:49.947Z,0.00
2018-08-16T01:36:49.840Z,0.00
2018-08-16T01:37:49.852Z,0.00
2018-08-16T01:38:49.651Z,0.00
2018-08-16T01:39:49.561Z,0.00
2018-08-16T01:40:49.484Z,0.00
2018-08-16T01:41:49.375Z,0.00
2018-08-16T01:42:49.284Z,0.00
2018-08-16T01:43:49.188Z,0.00
2018-08-16T01:44:49.198Z,0.00
2018-08-16T01:45:49.024Z,0.00
2018-08-16T01:46:48.917Z,0.00
2018-08-16T01:47:48.823Z,0.00
2018-08-16T01:48:48.730Z,0.00
2018-08-16T01:49:48.637Z,0.00
2018-08-16T01:50:48.559Z,0.00
2018-08-16T01:51:48.456Z,0.00
2018-08-16T01:52:48.362Z,0.00
2018-08-16T01:53:48.268Z,0.00
2018-08-16T01:54:48.178Z,0.00
2018-08-16T01:55:48.100Z,0.00
2018-08-16T01:56:47.989Z,0.00
2018-08-16T01:57:47.901Z,0.00
2018-08-16T01:58:47.807Z,0.00
2018-08-16T01:59:47.715Z,0.00
2018-08-16T02:00:47.638Z,0.00
2018-08-16T02:01:47.533Z,0.00
2018-08-16T02:02:47.438Z,0.00
2018-08-16T02:03:47.347Z,0.00
2018-08-16T02:04:47.253Z,0.00
2018-08-16T02:05:47.179Z,0.00
2018-08-16T02:06:47.070Z,0.00
2018-08-16T02:07:46.977Z,0.00
2018-08-16T02:08:46.889Z,0.00
2018-08-16T02:09:46.794Z,0.00
2018-08-16T02:10:46.716Z,0.00
2018-08-16T02:11:46.631Z,0.00
2018-08-16T02:12:46.520Z,0.00
2018-08-16T02:13:46.424Z,0.00
2018-08-16T02:14:46.332Z,0.00
2018-08-16T02:15:46.257Z,0.00
2018-08-16T02:16:46.150Z,0.00
2018-08-16T02:17:46.055Z,0.00
2018-08-16T02:18:45.965Z,0.00
2018-08-16T02:19:45.878Z,0.00
2018-08-16T02:20:45.797Z,0.00
2018-08-16T02:21:45.689Z,0.00
2018-08-16T02:22:45.595Z,0.00
2018-08-16T02:23:45.503Z,0.00
2018-08-16T02:24:45.412Z,0.00
2018-08-16T02:25:45.340Z,0.00
2018-08-16T02:26:45.226Z,0.00
2018-08-16T02:27:45.136Z,0.00
2018-08-16T02:28:45.042Z,0.00
2018-08-16T02:29:44.955Z,0.00
2018-08-16T02:30:44.879Z,0.00
2018-08-16T02:31:44.766Z,0.00
2018-08-16T02:32:44.695Z,0.00
2018-08-16T02:33:44.665Z,0.00
2018-08-16T02:34:44.491Z,0.00
2018-08-16T02:35:44.415Z,0.00
2018-08-16T02:36:44.304Z,0.00
2018-08-16T02:37:44.217Z,0.00
2018-08-16T02:38:44.121Z,0.00
2018-08-16T02:39:44.034Z,0.00
2018-08-16T02:40:43.953Z,0.00
2018-08-16T02:41:43.844Z,0.00
2018-08-16T02:42:43.752Z,0.00
2018-08-16T02:43:43.663Z,0.00
2018-08-16T02:44:43.570Z,0.00
2018-08-16T02:45:43.479Z,0.00
2018-08-16T02:46:43.400Z,0.00
2018-08-16T02:47:43.292Z,0.00
2018-08-16T02:48:43.203Z,0.00
2018-08-16T02:49:43.112Z,0.00
2018-08-16T02:50:43.024Z,0.00
2018-08-16T02:51:42.941Z,0.00
2018-08-16T02:52:42.834Z,0.00
2018-08-16T02:53:42.737Z,0.00
2018-08-16T02:54:42.649Z,0.00
2018-08-16T02:55:42.561Z,0.00
2018-08-16T02:56:42.478Z,0.00
2018-08-16T02:57:42.373Z,0.00
2018-08-16T02:58:42.277Z,0.00
2018-08-16T02:59:42.186Z,0.00
2018-08-16T03:00:42.101Z,0.00
2018-08-16T03:01:42.020Z,0.00
2018-08-16T03:02:41.911Z,0.00
2018-08-16T03:03:41.819Z,0.00
2018-08-16T03:04:41.727Z,0.00
2018-08-16T03:05:41.637Z,0.00
2018-08-16T03:06:41.560Z,0.00
2018-08-16T03:07:41.456Z,0.00
2018-08-16T03:08:41.357Z,0.00
2018-08-16T03:09:41.267Z,0.00
2018-08-16T03:10:41.175Z,0.00
2018-08-16T03:11:41.102Z,0.00
2018-08-16T03:12:40.990Z,0.00
2018-08-16T03:13:40.897Z,0.00
2018-08-16T03:14:40.806Z,0.00
2018-08-16T03:15:40.715Z,0.00
2018-08-16T03:16:40.642Z,0.00
2018-08-16T03:17:40.529Z,0.00
2018-08-16T03:18:40.438Z,0.00
2018-08-16T03:19:40.349Z,0.00
2018-08-16T03:20:40.256Z,0.00
2018-08-16T03:21:40.281Z,0.00
2018-08-16T03:22:40.072Z,0.00
2018-08-16T03:23:39.982Z,0.00
2018-08-16T03:24:39.889Z,0.00
2018-08-16T03:25:39.794Z,0.00
2018-08-16T03:26:39.718Z,4.00
2018-08-16T03:27:39.610Z,4.00
2018-08-16T03:28:39.622Z,4.00
2018-08-16T03:29:39.428Z,4.00
2018-08-16T03:30:39.334Z,4.00
2018-08-16T03:31:39.259Z,8.00
2018-08-16T03:32:39.153Z,4.00
2018-08-16T03:33:39.064Z,8.00
2018-08-16T03:34:38.965Z,8.00
2018-08-16T03:35:38.997Z,8.00
2018-08-16T03:36:38.801Z,8.00
2018-08-16T03:37:38.693Z,12.00
2018-08-16T03:38:38.597Z,16.00
2018-08-16T03:39:38.507Z,20.00
2018-08-16T03:40:38.417Z,24.00
2018-08-16T03:41:38.341Z,24.00
2018-08-16T03:42:38.332Z,32.00
2018-08-16T03:43:38.141Z,36.00
2018-08-16T03:44:38.048Z,40.00
2018-08-16T03:45:37.959Z,44.00
2018-08-16T03:46:37.883Z,52.00
2018-08-16T03:47:37.773Z,64.00
2018-08-16T03:48:37.684Z,72.00
2018-08-16T03:49:37.689Z,80.00
2018-08-16T03:50:37.500Z,88.00
2018-08-16T03:51:37.426Z,100.00
2018-08-16T03:52:37.315Z,112.00
2018-08-16T03:53:37.221Z,128.00
2018-08-16T03:54:37.146Z,144.00
2018-08-16T03:55:37.043Z,160.00
2018-08-16T03:56:37.063Z,180.00
2018-08-16T03:57:36.860Z,196.00
2018-08-16T03:58:36.764Z,220.00
2018-08-16T03:59:36.674Z,240.00
2018-08-16T04:00:36.583Z,268.00
2018-08-16T04:01:36.512Z,292.00
2018-08-16T04:02:36.399Z,324.00
2018-08-16T04:03:36.416Z,352.00
2018-08-16T04:04:36.215Z,388.00
2018-08-16T04:05:36.124Z,424.00
2018-08-16T04:06:36.049Z,464.00
2018-08-16T04:07:35.941Z,508.00
2018-08-16T04:08:35.848Z,552.00
2018-08-16T04:09:35.761Z,596.00
2018-08-16T04:10:35.765Z,640.00
2018-08-16T04:11:35.589Z,692.00
2018-08-16T04:12:35.485Z,740.00
2018-08-16T04:13:35.392Z,792.00
2018-08-16T04:14:35.299Z,844.00
2018-08-16T04:15:35.207Z,896.00
2018-08-16T04:16:35.136Z,952.00
2018-08-16T04:17:35.131Z,1008.00
2018-08-16T04:18:34.933Z,1064.00
2018-08-16T04:19:34.842Z,1116.00
2018-08-16T04:20:34.751Z,1172.00
2018-08-16T04:21:34.677Z,1232.00
2018-08-16T04:22:34.569Z,1292.00
2018-08-16T04:23:34.512Z,1352.00
2018-08-16T04:24:34.488Z,1412.00
2018-08-16T04:25:34.294Z,1480.00
2018-08-16T04:26:34.207Z,1548.00
2018-08-16T04:27:34.131Z,1608.00
2018-08-16T04:28:34.020Z,1668.00
2018-08-16T04:29:33.929Z,1736.00
2018-08-16T04:30:33.840Z,1800.00
2018-08-16T04:31:33.867Z,1864.00
2018-08-16T04:32:33.657Z,1928.00
2018-08-16T04:33:33.566Z,1996.00
2018-08-16T04:34:33.473Z,2072.00
2018-08-16T04:35:33.395Z,2140.00
2018-08-16T04:36:33.296Z,2212.00
2018-08-16T04:37:33.215Z,2284.00
2018-08-16T04:38:33.109Z,2356.00
2018-08-16T04:39:33.018Z,2428.00
2018-08-16T04:40:32.928Z,2492.00
2018-08-16T04:41:32.888Z,2564.00
2018-08-16T04:42:32.761Z,2632.00
2018-08-16T04:43:32.655Z,2704.00
2018-08-16T04:44:32.566Z,2768.00
2018-08-16T04:45:32.474Z,2840.00
2018-08-16T04:46:32.380Z,2908.00
2018-08-16T04:47:32.305Z,2980.00
2018-08-16T04:48:32.245Z,3048.00
2018-08-16T04:49:32.110Z,3116.00
2018-08-16T04:50:32.016Z,3180.00
2018-08-16T04:51:31.925Z,3252.00
2018-08-16T04:52:31.847Z,3324.00
2018-08-16T04:53:31.744Z,3396.00
2018-08-16T04:54:31.653Z,3608.00
2018-08-16T04:55:31.562Z,3668.00
2018-08-16T04:56:31.486Z,3876.00
2018-08-16T04:57:31.397Z,4712.00
2018-08-16T04:58:31.287Z,4864.00
2018-08-16T04:59:31.199Z,5076.00
2018-08-16T05:00:31.105Z,4980.00
2018-08-16T05:01:31.017Z,4092.00
2018-08-16T05:02:30.942Z,4120.00
2018-08-16T05:03:30.838Z,4172.00
2018-08-16T05:04:30.744Z,4556.00
2018-08-16T05:05:30.656Z,5076.00
2018-08-16T05:06:30.561Z,4608.00
2018-08-16T05:07:30.488Z,4464.00
2018-08-16T05:08:30.382Z,4500.00
2018-08-16T05:09:30.294Z,4528.00
2018-08-16T05:10:30.198Z,4612.00
2018-08-16T05:11:30.112Z,4656.00
2018-08-16T05:12:30.039Z,4696.00
2018-08-16T05:13:29.930Z,4784.00
2018-08-16T05:14:29.840Z,4904.00
2018-08-16T05:15:29.752Z,4828.00
2018-08-16T05:16:29.661Z,4900.00
2018-08-16T05:17:29.591Z,4936.00
2018-08-16T05:18:29.481Z,5004.00
2018-08-16T05:19:29.387Z,6088.00
2018-08-16T05:20:29.588Z,6724.00
2018-08-16T05:21:29.212Z,7900.00
2018-08-16T05:22:29.133Z,8276.00
2018-08-16T05:23:29.025Z,7432.00
2018-08-16T05:24:28.942Z,6012.00
2018-08-16T05:25:28.849Z,5540.00
2018-08-16T05:26:28.756Z,5472.00
2018-08-16T05:27:28.784Z,5608.00
2018-08-16T05:28:28.576Z,5560.00
2018-08-16T05:29:28.489Z,5632.00
2018-08-16T05:30:28.396Z,5716.00
2018-08-16T05:31:28.307Z,5804.00
2018-08-16T05:32:28.234Z,5916.00
2018-08-16T05:33:28.127Z,6120.00
2018-08-16T05:34:28.037Z,6232.00
2018-08-16T05:35:27.947Z,6192.00
2018-08-16T05:36:27.859Z,6196.00
2018-08-16T05:37:27.784Z,6256.00
2018-08-16T05:38:27.688Z,6408.00
2018-08-16T05:39:27.592Z,6736.00
2018-08-16T05:40:27.502Z,6820.00
2018-08-16T05:41:27.409Z,6772.00
2018-08-16T05:42:27.333Z,6568.00
2018-08-16T05:43:27.317Z,6664.00
2018-08-16T05:44:27.142Z,7020.00
2018-08-16T05:45:27.053Z,6956.00
2018-08-16T05:46:26.958Z,7232.00
2018-08-16T05:47:26.888Z,7528.00
2018-08-16T05:48:26.828Z,8784.00
2018-08-16T05:49:26.693Z,8144.00
2018-08-16T05:50:26.604Z,7812.00
2018-08-16T05:51:26.511Z,7204.00
2018-08-16T05:52:26.444Z,7248.00
2018-08-16T05:53:26.333Z,7264.00
2018-08-16T05:54:26.247Z,7308.00
2018-08-16T05:55:26.158Z,7360.00
2018-08-16T05:56:26.066Z,7404.00
2018-08-16T05:57:25.994Z,7452.00
2018-08-16T05:58:25.890Z,7516.00
2018-08-16T05:59:25.920Z,7584.00
2018-08-16T06:00:25.709Z,7636.00
2018-08-16T06:01:25.621Z,7732.00
2018-08-16T06:02:25.545Z,7796.00
2018-08-16T06:03:25.445Z,7856.00
2018-08-16T06:04:25.364Z,7940.00
2018-08-16T06:05:25.263Z,8408.00
2018-08-16T06:06:25.176Z,8516.00
2018-08-16T06:07:25.114Z,9320.00
2018-08-16T06:08:24.996Z,10576.00
2018-08-16T06:09:24.910Z,12548.00
2018-08-16T06:10:24.817Z,9608.00
2018-08-16T06:11:24.728Z,9792.00
2018-08-16T06:12:24.660Z,8956.00
2018-08-16T06:13:24.550Z,8640.00
2018-08-16T06:14:24.465Z,8348.00
2018-08-16T06:15:24.400Z,8400.00
2018-08-16T06:16:24.290Z,8472.00
2018-08-16T06:17:24.213Z,8536.00
2018-08-16T06:18:24.106Z,8680.00
2018-08-16T06:19:24.022Z,8704.00
2018-08-16T06:20:23.943Z,8788.00
2018-08-16T06:21:23.841Z,9344.00
2018-08-16T06:22:23.770Z,10056.00
2018-08-16T06:23:23.767Z,9532.00
2018-08-16T06:24:23.582Z,9808.00
2018-08-16T06:25:23.487Z,9492.00
2018-08-16T06:26:23.396Z,10372.00
2018-08-16T06:27:23.312Z,10304.00
2018-08-16T06:28:23.236Z,9456.00
2018-08-16T06:29:23.132Z,9264.00
2018-08-16T06:30:23.146Z,9308.00
2018-08-16T06:31:22.955Z,9372.00
2018-08-16T06:32:22.870Z,9440.00
2018-08-16T06:33:22.802Z,9520.00
2018-08-16T06:34:22.691Z,9600.00
2018-08-16T06:35:22.601Z,9668.00
2018-08-16T06:36:22.514Z,9768.00
2018-08-16T06:37:22.529Z,9908.00
2018-08-16T06:38:22.353Z,10012.00
2018-08-16T06:39:22.249Z,10604.00
2018-08-16T06:40:22.163Z,11132.00
2018-08-16T06:41:22.076Z,10976.00
2018-08-16T06:42:22.000Z,11336.00
2018-08-16T06:43:21.913Z,14084.00
2018-08-16T06:44:21.914Z,19648.00
2018-08-16T06:45:21.719Z,22432.00
2018-08-16T06:46:21.708Z,22816.00
2018-08-16T06:47:21.545Z,23264.00
2018-08-16T06:48:21.473Z,24160.00
2018-08-16T06:49:21.370Z,24896.00
2018-08-16T06:50:21.282Z,25312.00
2018-08-16T06:51:21.303Z,24672.00
2018-08-16T06:52:21.107Z,24608.00
2018-08-16T06:53:21.037Z,24864.00
2018-08-16T06:54:20.932Z,25184.00
2018-08-16T06:55:20.845Z,25856.00
2018-08-16T06:56:20.757Z,26528.00
2018-08-16T06:57:20.669Z,27296.00
2018-08-16T06:58:20.715Z,27840.00
2018-08-16T06:59:20.498Z,27904.00
2018-08-16T07:00:20.412Z,28000.00
2018-08-16T07:01:20.325Z,27968.00
2018-08-16T07:02:20.243Z,28064.00
2018-08-16T07:03:20.190Z,28448.00
2018-08-16T07:04:20.069Z,29280.00
2018-08-16T07:05:20.082Z,29984.00
2018-08-16T07:06:19.895Z,30912.00
2018-08-16T07:07:19.813Z,32544.00
2018-08-16T07:08:19.744Z,32448.00
2018-08-16T07:09:19.641Z,32192.00
2018-08-16T07:10:19.555Z,32288.00
2018-08-16T07:11:19.477Z,33920.00
2018-08-16T07:12:19.585Z,37248.00
2018-08-16T07:13:19.328Z,39168.00
2018-08-16T07:14:19.218Z,36832.00
2018-08-16T07:15:19.134Z,37344.00
2018-08-16T07:16:19.051Z,35520.00
2018-08-16T07:17:18.965Z,33088.00
2018-08-16T07:18:18.898Z,32448.00
2018-08-16T07:19:18.899Z,31968.00
2018-08-16T07:20:18.717Z,31968.00
2018-08-16T07:21:18.632Z,31936.00
2018-08-16T07:22:18.548Z,31616.00
2018-08-16T07:23:18.482Z,31552.00
2018-08-16T07:24:18.431Z,31552.00
2018-08-16T07:25:18.300Z,31360.00
2018-08-16T07:26:18.324Z,31520.00
2018-08-16T07:27:18.133Z,31840.00
2018-08-16T07:28:18.068Z,32512.00
2018-08-16T07:29:17.966Z,32992.00
2018-08-16T07:30:17.882Z,33632.00
2018-08-16T07:31:17.801Z,33888.00
2018-08-16T07:32:17.841Z,34912.00
2018-08-16T07:33:17.655Z,37344.00
2018-08-16T07:34:17.554Z,37792.00
2018-08-16T07:35:17.467Z,37984.00
2018-08-16T07:36:17.388Z,40256.00
2018-08-16T07:37:17.308Z,41184.00
2018-08-16T07:38:17.239Z,41184.00
2018-08-16T07:39:17.140Z,40512.00
2018-08-16T07:40:17.057Z,41184.00
2018-08-16T07:41:16.975Z,42752.00
2018-08-16T07:42:16.890Z,43712.00
2018-08-16T07:43:16.824Z,40320.00
2018-08-16T07:44:16.727Z,38656.00
2018-08-16T07:45:16.649Z,38816.00
2018-08-16T07:46:16.658Z,38112.00
2018-08-16T07:47:16.480Z,37088.00
2018-08-16T07:48:16.418Z,35648.00
2018-08-16T07:49:16.317Z,34240.00
2018-08-16T07:50:16.236Z,33056.00
2018-08-16T07:51:16.270Z,32736.00
2018-08-16T07:52:16.075Z,32896.00
2018-08-16T07:53:16.013Z,33152.00
2018-08-16T07:54:15.911Z,33248.00
2018-08-16T07:55:15.828Z,33216.00
2018-08-16T07:56:15.745Z,33184.00
2018-08-16T07:57:15.665Z,32800.00
2018-08-16T07:58:15.605Z,33376.00
2018-08-16T07:59:15.503Z,34720.00
2018-08-16T08:00:15.424Z,36992.00
2018-08-16T08:01:15.351Z,41952.00
2018-08-16T08:02:15.260Z,44416.00
2018-08-16T08:03:15.198Z,44032.00
2018-08-16T08:04:15.099Z,44640.00
2018-08-16T08:05:15.024Z,51264.00
2018-08-16T08:06:14.936Z,57152.00
2018-08-16T08:07:14.860Z,57216.00
2018-08-16T08:08:14.779Z,68704.00
2018-08-16T08:09:14.732Z,87104.00
2018-08-16T08:10:14.616Z,104608.00
2018-08-16T08:11:14.534Z,104608.00
2018-08-16T08:12:14.456Z,77920.00
2018-08-16T08:13:14.377Z,65408.00
2018-08-16T08:14:14.310Z,53248.00
2018-08-16T08:15:14.210Z,53504.00
2018-08-16T08:16:14.135Z,60512.00
2018-08-16T08:17:14.049Z,75200.00
2018-08-16T08:18:13.976Z,78144.00
2018-08-16T08:19:13.906Z,71552.00
2018-08-16T08:20:13.808Z,63552.00
2018-08-16T08:21:13.731Z,60640.00
2018-08-16T08:22:13.647Z,62528.00
2018-08-16T08:23:13.570Z,65504.00
2018-08-16T08:24:13.503Z,79456.00
2018-08-16T08:25:13.422Z,94880.00
2018-08-16T08:26:13.330Z,98784.00
2018-08-16T08:27:13.247Z,103872.00
2018-08-16T08:28:13.170Z,88896.00
2018-08-16T08:29:13.099Z,61248.00
2018-08-16T08:30:13.009Z,63584.00
2018-08-16T08:31:12.923Z,66496.00
2018-08-16T08:32:12.842Z,64384.00
2018-08-16T08:33:12.764Z,58976.00
2018-08-16T08:34:12.701Z,73472.00
2018-08-16T08:35:12.603Z,102848.00
2018-08-16T08:36:12.523Z,132768.00
2018-08-16T08:37:12.447Z,128416.00
2018-08-16T08:38:12.366Z,108768.00
2018-08-16T08:39:12.305Z,90016.00
2018-08-16T08:40:12.203Z,80064.00
2018-08-16T08:41:12.123Z,78048.00
2018-08-16T08:42:12.041Z,71648.00
2018-08-16T08:43:11.963Z,71328.00
2018-08-16T08:44:11.900Z,77952.00
2018-08-16T08:45:11.806Z,76416.00
2018-08-16T08:46:11.724Z,66240.00
2018-08-16T08:47:11.662Z,60864.00
2018-08-16T08:48:11.566Z,59392.00
2018-08-16T08:49:11.501Z,64672.00
2018-08-16T08:50:11.411Z,70016.00
2018-08-16T08:51:11.324Z,73152.00
2018-08-16T08:52:11.245Z,69856.00
2018-08-16T08:53:11.167Z,59584.00
2018-08-16T08:54:11.101Z,59200.00
2018-08-16T08:55:11.011Z,63168.00
2018-08-16T08:56:10.927Z,65920.00
2018-08-16T08:57:10.848Z,72800.00
2018-08-16T08:58:10.772Z,77152.00
2018-08-16T08:59:10.708Z,70816.00
2018-08-16T09:00:10.610Z,61792.00
2018-08-16T09:01:10.531Z,68640.00
2018-08-16T09:02:10.451Z,92064.00
2018-08-16T09:03:10.369Z,102336.00
2018-08-16T09:04:10.306Z,104576.00
2018-08-16T09:05:10.216Z,98112.00
2018-08-16T09:06:10.134Z,80352.00
2018-08-16T09:07:10.052Z,75104.00
2018-08-16T09:08:09.983Z,76704.00
2018-08-16T09:09:09.910Z,65376.00
2018-08-16T09:10:09.924Z,57696.00
2018-08-16T09:11:09.738Z,60096.00
2018-08-16T09:12:09.663Z,77760.00
2018-08-16T09:13:09.578Z,84128.00
2018-08-16T09:14:09.512Z,67200.00
2018-08-16T09:15:09.416Z,68128.00
2018-08-16T09:16:09.338Z,74528.00
2018-08-16T09:17:09.366Z,75360.00
2018-08-16T09:18:09.183Z,79936.00
2018-08-16T09:19:09.116Z,82144.00
2018-08-16T09:20:09.020Z,92800.00
2018-08-16T09:21:08.944Z,95904.00
2018-08-16T09:22:08.865Z,89952.00
2018-08-16T09:23:08.782Z,78624.00
2018-08-16T09:24:08.879Z,93504.00
2018-08-16T09:25:08.627Z,96416.00
2018-08-16T09:26:08.545Z,76832.00
2018-08-16T09:27:08.471Z,75648.00
2018-08-16T09:28:08.390Z,87968.00
2018-08-16T09:29:08.328Z,86880.00
2018-08-16T09:30:08.230Z,82976.00
2018-08-16T09:31:08.272Z,78880.00
2018-08-16T09:32:08.076Z,94496.00
2018-08-16T09:33:07.996Z,90816.00
2018-08-16T09:34:07.932Z,80352.00
2018-08-16T09:35:07.838Z,82080.00
2018-08-16T09:36:07.759Z,84096.00
2018-08-16T09:37:07.689Z,85664.00
2018-08-16T09:38:07.705Z,88096.00
2018-08-16T09:39:07.546Z,84096.00
2018-08-16T09:40:07.448Z,78112.00
2018-08-16T09:41:07.369Z,94976.00
2018-08-16T09:42:07.291Z,93984.00
2018-08-16T09:43:07.212Z,46464.00
2018-08-16T09:44:07.152Z,93440.00
2018-08-16T09:45:07.221Z,87136.00
2018-08-16T09:46:06.979Z,92928.00
2018-08-16T09:47:06.901Z,89088.00
2018-08-16T09:48:06.821Z,90848.00
2018-08-16T09:49:06.764Z,95488.00
2018-08-16T09:50:06.670Z,106112.00
2018-08-16T09:51:06.589Z,102624.00
2018-08-16T09:52:06.611Z,97152.00
2018-08-16T09:53:06.435Z,93792.00
2018-08-16T09:54:06.361Z,91520.00
2018-08-16T09:55:06.294Z,90624.00
2018-08-16T09:56:06.201Z,101408.00
2018-08-16T09:57:06.136Z,98944.00
2018-08-16T09:58:06.044Z,93856.00
2018-08-16T09:59:06.066Z,92832.00
2018-08-16T10:00:05.908Z,86624.00
2018-08-16T10:01:05.814Z,83808.00
2018-08-16T10:02:05.760Z,84960.00
2018-08-16T10:03:05.658Z,90368.00
2018-08-16T10:04:05.584Z,93376.00
2018-08-16T10:05:05.546Z,92096.00
2018-08-16T10:06:05.526Z,91424.00
2018-08-16T10:07:05.348Z,96800.00
2018-08-16T10:08:05.270Z,90208.00
2018-08-16T10:09:05.199Z,84032.00
2018-08-16T10:10:05.129Z,79744.00
2018-08-16T10:11:05.038Z,78080.00
2018-08-16T10:12:04.960Z,79104.00
2018-08-16T10:13:04.982Z,76992.00
2018-08-16T10:14:04.808Z,76224.00
2018-08-16T10:15:04.746Z,77696.00
2018-08-16T10:16:04.650Z,71264.00
2018-08-16T10:17:04.569Z,78784.00
2018-08-16T10:18:05.378Z,81184.00
2018-08-16T10:19:04.418Z,79136.00
2018-08-16T10:20:04.538Z,74112.00
2018-08-16T10:21:04.270Z,77984.00
2018-08-16T10:22:04.184Z,78400.00
2018-08-16T10:23:04.103Z,65824.00
2018-08-16T10:24:04.024Z,66944.00
2018-08-16T10:25:03.967Z,69152.00
2018-08-16T10:26:03.875Z,73728.00
2018-08-16T10:27:03.993Z,78144.00
2018-08-16T10:28:03.717Z,82880.00
2018-08-16T10:29:03.637Z,85408.00
2018-08-16T10:30:03.576Z,84096.00
2018-08-16T10:31:03.483Z,80768.00
2018-08-16T10:32:03.404Z,82624.00
2018-08-16T10:33:03.326Z,78880.00
2018-08-16T10:34:03.254Z,76544.00
2018-08-16T10:35:03.188Z,76800.00
2018-08-16T10:36:03.097Z,76704.00
2018-08-16T10:37:03.064Z,84992.00
2018-08-16T10:38:02.938Z,90496.00
2018-08-16T10:39:02.862Z,85888.00
2018-08-16T10:40:02.800Z,86176.00
2018-08-16T10:41:02.713Z,83104.00
2018-08-16T10:42:02.626Z,81024.00
2018-08-16T10:43:02.549Z,79520.00
2018-08-16T10:44:02.474Z,77184.00
2018-08-16T10:45:02.415Z,88608.00
2018-08-16T10:46:02.316Z,89792.00
2018-08-16T10:47:02.237Z,90240.00
2018-08-16T10:48:02.161Z,88832.00
2018-08-16T10:49:02.085Z,88320.00
2018-08-16T10:50:02.023Z,87232.00
2018-08-16T10:51:01.925Z,87872.00
2018-08-16T10:52:01.847Z,83712.00
2018-08-16T10:53:01.770Z,84224.00
2018-08-16T10:54:01.691Z,80416.00
2018-08-16T10:55:01.634Z,79488.00
2018-08-16T10:56:01.542Z,79168.00
2018-08-16T10:57:01.456Z,88768.00
2018-08-16T10:58:01.382Z,93024.00
2018-08-16T10:59:01.303Z,87808.00
2018-08-16T11:00:01.283Z,94304.00
2018-08-16T11:01:01.149Z,86624.00
2018-08-16T11:02:01.077Z,85024.00
2018-08-16T11:03:00.987Z,84096.00
2018-08-16T11:04:00.912Z,83392.00
2018-08-16T11:05:00.848Z,85408.00
2018-08-16T11:06:00.752Z,87648.00
2018-08-16T11:07:00.670Z,89920.00
2018-08-16T11:08:00.596Z,89216.00
2018-08-16T11:09:00.519Z,92704.00
2018-08-16T11:10:00.454Z,93664.00
2018-08-16T11:11:00.363Z,89728.00
2018-08-16T11:12:00.280Z,91712.00
2018-08-16T11:13:00.205Z,93984.00
2018-08-16T11:14:00.125Z,96256.00
2018-08-16T11:15:00.061Z,93248.00
2018-08-16T11:15:59.973Z,87328.00
2018-08-16T11:16:59.888Z,89248.00
2018-08-16T11:17:59.810Z,88992.00
2018-08-16T11:18:59.823Z,91712.00
2018-08-16T11:19:59.670Z,94368.00
2018-08-16T11:20:59.593Z,93664.00
2018-08-16T11:21:59.497Z,91232.00
2018-08-16T11:22:59.424Z,92544.00
2018-08-16T11:23:59.343Z,92032.00
2018-08-16T11:24:59.281Z,88576.00
2018-08-16T11:25:59.184Z,90048.00
2018-08-16T11:26:59.106Z,95104.00
2018-08-16T11:27:59.029Z,88608.00
2018-08-16T11:28:58.963Z,89088.00
2018-08-16T11:29:59.289Z,93984.00
2018-08-16T11:30:58.798Z,94112.00
2018-08-16T11:31:58.717Z,95136.00
2018-08-16T11:32:58.639Z,90880.00
2018-08-16T11:33:58.559Z,80800.00
2018-08-16T11:34:58.542Z,80928.00
2018-08-16T11:35:58.403Z,79264.00
2018-08-16T11:36:58.323Z,87360.00
2018-08-16T11:37:58.299Z,88576.00
2018-08-16T11:38:58.169Z,85024.00
2018-08-16T11:39:58.110Z,89568.00
2018-08-16T11:40:58.010Z,95712.00
2018-08-16T11:41:57.936Z,96128.00
2018-08-16T11:42:57.854Z,99552.00
2018-08-16T11:43:57.777Z,100000.00
2018-08-16T11:44:57.700Z,92768.00
2018-08-16T11:45:57.635Z,93120.00
2018-08-16T11:46:57.545Z,86944.00
2018-08-16T11:47:57.470Z,87648.00
2018-08-16T11:48:57.387Z,91232.00
2018-08-16T11:49:57.309Z,91264.00
2018-08-16T11:50:57.244Z,89568.00
2018-08-16T11:51:57.151Z,85824.00
2018-08-16T11:52:57.075Z,82080.00
2018-08-16T11:53:56.994Z,77504.00
2018-08-16T11:54:56.920Z,82112.00
2018-08-16T11:55:56.858Z,82752.00
2018-08-16T11:56:56.779Z,84672.00
2018-08-16T11:57:56.682Z,82080.00
2018-08-16T11:58:56.605Z,78592.00
2018-08-16T11:59:56.529Z,75296.00
2018-08-16T12:00:56.467Z,73312.00
2018-08-16T12:01:56.413Z,74016.00
2018-08-16T12:02:56.292Z,76096.00
2018-08-16T12:03:56.214Z,74048.00
2018-08-16T12:04:56.139Z,76768.00
2018-08-16T12:05:56.078Z,81216.00
2018-08-16T12:06:55.983Z,80544.00
2018-08-16T12:07:55.929Z,79840.00
2018-08-16T12:08:55.847Z,81664.00
2018-08-16T12:09:55.747Z,85344.00
2018-08-16T12:10:55.687Z,80512.00
2018-08-16T12:11:55.691Z,87136.00
2018-08-16T12:12:55.514Z,85632.00
2018-08-16T12:13:55.436Z,80032.00
2018-08-16T12:14:55.364Z,84384.00
2018-08-16T12:15:55.299Z,81664.00